AFR66 LFPO-LFMP
Flight info
| Callsign | AFR66 |
|---|---|
| Flight time | 1h 1m |
| Altitude | 35000 |
| Route | ERIXU DCT ETAMO DCT ADEKA DCT MOKDI DCT MEN DCT BADAM DCT NEKTA DCT SIJAN |
| Aircraft | A320/M-SDE3FGHIRWY/LB1 |
Departure
| Time | 2026-04-19 06:02 |
|---|---|
| Airport | Paris-Orly Airport (LFPO) |
Arrival
| Time | 2026-04-19 07:04 |
|---|---|
| Airport | Perpignan-Rivesaltes (Llabanère) Airport (LFMP) |
| Time | Latitude | Longitude | Altitude | Speed | Heading |
|---|---|---|---|---|---|
| 2026-04-19 05:53 | 48.73101 | 2.35926 | 299 ft | 0 kts | 166° |
| 2026-04-19 05:58 | 48.73110 | 2.35922 | 301 ft | 2 kts | 166° |
| 2026-04-19 05:58 | 48.73127 | 2.35913 | 303 ft | 3 kts | 139° |
| 2026-04-19 05:58 | 48.73138 | 2.35893 | 301 ft | 3 kts | 102° |
| 2026-04-19 05:59 | 48.73139 | 2.35866 | 301 ft | 3 kts | 66° |
| 2026-04-19 05:59 | 48.73136 | 2.35856 | 302 ft | 0 kts | 52° |
| 2026-04-19 06:00 | 48.73159 | 2.35900 | 302 ft | 12 kts | 52° |
| 2026-04-19 06:00 | 48.73208 | 2.36003 | 301 ft | 12 kts | 55° |
| 2026-04-19 06:00 | 48.73255 | 2.36091 | 301 ft | 10 kts | 32° |
| 2026-04-19 06:01 | 48.73317 | 2.36081 | 299 ft | 9 kts | 344° |
| 2026-04-19 06:01 | 48.73413 | 2.36093 | 298 ft | 21 kts | 7° |
| 2026-04-19 06:01 | 48.73499 | 2.35959 | 299 ft | 22 kts | 257° |
| 2026-04-19 06:01 | 48.73416 | 2.35713 | 302 ft | 38 kts | 241° |
| 2026-04-19 06:02 | 48.73180 | 2.35028 | 301 ft | 106 kts | 242° |
| 2026-04-19 06:02 | 48.72748 | 2.33799 | 304 ft | 157 kts | 242° |
| 2026-04-19 06:02 | 48.72223 | 2.32318 | 829 ft | 157 kts | 242° |
| 2026-04-19 06:02 | 48.71679 | 2.30858 | 1447 ft | 162 kts | 239° |
| 2026-04-19 06:03 | 48.71051 | 2.29424 | 2083 ft | 166 kts | 237° |
| 2026-04-19 06:03 | 48.70367 | 2.27923 | 2397 ft | 183 kts | 238° |
| 2026-04-19 06:03 | 48.69606 | 2.26165 | 2504 ft | 212 kts | 239° |
| 2026-04-19 06:03 | 48.68765 | 2.24196 | 2855 ft | 233 kts | 239° |
| 2026-04-19 06:04 | 48.67846 | 2.22037 | 3225 ft | 258 kts | 239° |
| 2026-04-19 06:04 | 48.66846 | 2.19687 | 3913 ft | 270 kts | 239° |
| 2026-04-19 06:04 | 48.65748 | 2.17345 | 4793 ft | 276 kts | 229° |
| 2026-04-19 06:04 | 48.64303 | 2.15468 | 5701 ft | 281 kts | 217° |
| 2026-04-19 06:05 | 48.62639 | 2.13867 | 6644 ft | 284 kts | 212° |
| 2026-04-19 06:05 | 48.60937 | 2.12409 | 7507 ft | 286 kts | 212° |
| 2026-04-19 06:05 | 48.59196 | 2.10940 | 8391 ft | 287 kts | 213° |
| 2026-04-19 06:05 | 48.57458 | 2.09437 | 9305 ft | 288 kts | 214° |
| 2026-04-19 06:06 | 48.55673 | 2.08017 | 10199 ft | 294 kts | 204° |
| 2026-04-19 06:06 | 48.53614 | 2.07475 | 10747 ft | 316 kts | 181° |
| 2026-04-19 06:06 | 48.51359 | 2.08119 | 10979 ft | 343 kts | 168° |
| 2026-04-19 06:06 | 48.49013 | 2.09073 | 11520 ft | 353 kts | 167° |
| 2026-04-19 06:07 | 48.46629 | 2.10099 | 12237 ft | 358 kts | 167° |
| 2026-04-19 06:07 | 48.44218 | 2.11147 | 12979 ft | 362 kts | 167° |
| 2026-04-19 06:07 | 48.41786 | 2.12192 | 13711 ft | 366 kts | 167° |
| 2026-04-19 06:07 | 48.39319 | 2.13237 | 14403 ft | 369 kts | 168° |
| 2026-04-19 06:08 | 48.36829 | 2.14276 | 15046 ft | 372 kts | 168° |
| 2026-04-19 06:08 | 48.34351 | 2.15300 | 15682 ft | 376 kts | 168° |
| 2026-04-19 06:08 | 48.31817 | 2.16342 | 16329 ft | 379 kts | 168° |
| 2026-04-19 06:08 | 48.29265 | 2.17390 | 16957 ft | 382 kts | 168° |
| 2026-04-19 06:09 | 48.26687 | 2.18446 | 17590 ft | 385 kts | 169° |
| 2026-04-19 06:09 | 48.24086 | 2.19513 | 18215 ft | 389 kts | 169° |
| 2026-04-19 06:09 | 48.21468 | 2.20587 | 18793 ft | 392 kts | 169° |
| 2026-04-19 06:09 | 48.18823 | 2.21672 | 19330 ft | 395 kts | 169° |
| 2026-04-19 06:10 | 48.16157 | 2.22764 | 19882 ft | 399 kts | 169° |
| 2026-04-19 06:10 | 48.13468 | 2.23845 | 20411 ft | 402 kts | 171° |
| 2026-04-19 06:10 | 48.10739 | 2.24768 | 20949 ft | 404 kts | 173° |
| 2026-04-19 06:10 | 48.07959 | 2.25554 | 21487 ft | 406 kts | 175° |
| 2026-04-19 06:11 | 48.05165 | 2.26268 | 22023 ft | 409 kts | 175° |
| 2026-04-19 06:11 | 48.02342 | 2.26974 | 22553 ft | 412 kts | 175° |
| 2026-04-19 06:11 | 47.99502 | 2.27703 | 23083 ft | 416 kts | 175° |
| 2026-04-19 06:12 | 47.93801 | 2.29249 | 24039 ft | 422 kts | 174° |
| 2026-04-19 06:12 | 47.90895 | 2.30061 | 24460 ft | 425 kts | 174° |
| 2026-04-19 06:12 | 47.87976 | 2.30880 | 24877 ft | 427 kts | 174° |
| 2026-04-19 06:12 | 47.85093 | 2.31690 | 25276 ft | 430 kts | 174° |
| 2026-04-19 06:13 | 47.82153 | 2.32514 | 25682 ft | 432 kts | 174° |
| 2026-04-19 06:13 | 47.79190 | 2.33340 | 26070 ft | 433 kts | 174° |
| 2026-04-19 06:13 | 47.76220 | 2.34161 | 26457 ft | 435 kts | 174° |
| 2026-04-19 06:13 | 47.73243 | 2.34978 | 26839 ft | 437 kts | 174° |
| 2026-04-19 06:14 | 47.70231 | 2.35803 | 27219 ft | 439 kts | 174° |
| 2026-04-19 06:14 | 47.67219 | 2.36627 | 27588 ft | 441 kts | 174° |
| 2026-04-19 06:14 | 47.64194 | 2.37459 | 27950 ft | 444 kts | 174° |
| 2026-04-19 06:14 | 47.61150 | 2.38298 | 28303 ft | 446 kts | 174° |
| 2026-04-19 06:15 | 47.58093 | 2.39140 | 28651 ft | 448 kts | 174° |
| 2026-04-19 06:15 | 47.55012 | 2.39985 | 28992 ft | 450 kts | 174° |
| 2026-04-19 06:15 | 47.51968 | 2.40816 | 29314 ft | 452 kts | 174° |
| 2026-04-19 06:15 | 47.48827 | 2.41672 | 29645 ft | 454 kts | 174° |
| 2026-04-19 06:16 | 47.45716 | 2.42520 | 29946 ft | 456 kts | 174° |
| 2026-04-19 06:16 | 47.42633 | 2.43361 | 30246 ft | 458 kts | 174° |
| 2026-04-19 06:16 | 47.39481 | 2.44219 | 30498 ft | 460 kts | 174° |
| 2026-04-19 06:16 | 47.36330 | 2.45079 | 30733 ft | 462 kts | 174° |
| 2026-04-19 06:17 | 47.33154 | 2.45948 | 30965 ft | 464 kts | 174° |
| 2026-04-19 06:17 | 47.29970 | 2.46816 | 31200 ft | 466 kts | 174° |
| 2026-04-19 06:17 | 47.26775 | 2.47684 | 31417 ft | 467 kts | 175° |
| 2026-04-19 06:17 | 47.23572 | 2.48549 | 31666 ft | 468 kts | 175° |
| 2026-04-19 06:18 | 47.20379 | 2.49410 | 31987 ft | 467 kts | 175° |
| 2026-04-19 06:18 | 47.17184 | 2.50271 | 32306 ft | 466 kts | 175° |
| 2026-04-19 06:18 | 47.14002 | 2.51123 | 32614 ft | 465 kts | 175° |
| 2026-04-19 06:18 | 47.10826 | 2.51973 | 32933 ft | 464 kts | 175° |
| 2026-04-19 06:19 | 47.07647 | 2.52827 | 33246 ft | 463 kts | 176° |
| 2026-04-19 06:19 | 47.04477 | 2.53681 | 33559 ft | 462 kts | 176° |
| 2026-04-19 06:19 | 47.01317 | 2.54533 | 33876 ft | 462 kts | 176° |
| 2026-04-19 06:19 | 46.98208 | 2.55371 | 34187 ft | 461 kts | 176° |
| 2026-04-19 06:20 | 46.95009 | 2.56233 | 34467 ft | 460 kts | 176° |
| 2026-04-19 06:20 | 46.91872 | 2.57076 | 34719 ft | 460 kts | 176° |
| 2026-04-19 06:20 | 46.88706 | 2.57922 | 34965 ft | 459 kts | 176° |
| 2026-04-19 06:20 | 46.85563 | 2.58757 | 35178 ft | 460 kts | 176° |
| 2026-04-19 06:21 | 46.79344 | 2.60411 | 35257 ft | 455 kts | 176° |
| 2026-04-19 06:21 | 46.73130 | 2.62065 | 35254 ft | 453 kts | 176° |
| 2026-04-19 06:22 | 46.66985 | 2.63688 | 35254 ft | 453 kts | 176° |
| 2026-04-19 06:22 | 46.60779 | 2.65321 | 35250 ft | 453 kts | 176° |
| 2026-04-19 06:23 | 46.54585 | 2.66944 | 35242 ft | 453 kts | 176° |
| 2026-04-19 06:23 | 46.48374 | 2.68582 | 35236 ft | 453 kts | 177° |
| 2026-04-19 06:24 | 46.42176 | 2.70216 | 35237 ft | 453 kts | 177° |
| 2026-04-19 06:24 | 46.35980 | 2.71849 | 35234 ft | 453 kts | 177° |
| 2026-04-19 06:25 | 46.29777 | 2.73467 | 35233 ft | 453 kts | 177° |
| 2026-04-19 06:25 | 46.23626 | 2.75072 | 35231 ft | 453 kts | 177° |
| 2026-04-19 06:26 | 46.17423 | 2.76689 | 35224 ft | 453 kts | 177° |
| 2026-04-19 06:26 | 46.11254 | 2.78293 | 35221 ft | 453 kts | 177° |
| 2026-04-19 06:27 | 46.05053 | 2.79899 | 35220 ft | 453 kts | 177° |
| 2026-04-19 06:27 | 45.98850 | 2.81494 | 35215 ft | 452 kts | 177° |
| 2026-04-19 06:28 | 45.92649 | 2.83090 | 35210 ft | 452 kts | 177° |
| 2026-04-19 06:28 | 45.86488 | 2.84678 | 35211 ft | 452 kts | 177° |
| 2026-04-19 06:29 | 45.80294 | 2.86264 | 35206 ft | 452 kts | 177° |
| 2026-04-19 06:29 | 45.74094 | 2.87850 | 35200 ft | 452 kts | 177° |
| 2026-04-19 06:30 | 45.67907 | 2.89437 | 35194 ft | 452 kts | 177° |
| 2026-04-19 06:30 | 45.61718 | 2.91025 | 35191 ft | 451 kts | 177° |
| 2026-04-19 06:31 | 45.55535 | 2.92603 | 35190 ft | 451 kts | 177° |
| 2026-04-19 06:31 | 45.49401 | 2.94148 | 35185 ft | 451 kts | 177° |
| 2026-04-19 06:32 | 45.43194 | 2.95705 | 35180 ft | 452 kts | 177° |
| 2026-04-19 06:32 | 45.36918 | 2.97285 | 35184 ft | 463 kts | 177° |
| 2026-04-19 06:33 | 45.30498 | 2.98904 | 35205 ft | 472 kts | 177° |
| 2026-04-19 06:33 | 45.23993 | 3.00538 | 35198 ft | 479 kts | 177° |
| 2026-04-19 06:34 | 45.17439 | 3.02188 | 35197 ft | 483 kts | 176° |
| 2026-04-19 06:34 | 45.10796 | 3.03855 | 35197 ft | 486 kts | 176° |
| 2026-04-19 06:35 | 45.04134 | 3.05519 | 35194 ft | 489 kts | 176° |
| 2026-04-19 06:35 | 44.98549 | 3.06908 | 35195 ft | 491 kts | 176° |
| 2026-04-19 06:36 | 44.91885 | 3.08565 | 35187 ft | 477 kts | 176° |
| 2026-04-19 06:36 | 44.88671 | 3.09379 | 35190 ft | 462 kts | 176° |
| 2026-04-19 06:36 | 44.85529 | 3.10172 | 35188 ft | 456 kts | 177° |
| 2026-04-19 06:37 | 44.79299 | 3.11713 | 35183 ft | 454 kts | 177° |
| 2026-04-19 06:37 | 44.73064 | 3.13234 | 35185 ft | 454 kts | 177° |
| 2026-04-19 06:38 | 44.66876 | 3.14754 | 35180 ft | 454 kts | 177° |
| 2026-04-19 06:38 | 44.60658 | 3.16170 | 35169 ft | 449 kts | 183° |
| 2026-04-19 06:39 | 44.54468 | 3.16335 | 35164 ft | 444 kts | 186° |
| 2026-04-19 06:39 | 44.48283 | 3.16429 | 35154 ft | 445 kts | 186° |
| 2026-04-19 06:40 | 44.42086 | 3.16528 | 35149 ft | 445 kts | 186° |
| 2026-04-19 06:40 | 44.35896 | 3.16632 | 35140 ft | 444 kts | 186° |
| 2026-04-19 06:41 | 44.29704 | 3.16726 | 35136 ft | 445 kts | 186° |
| 2026-04-19 06:41 | 44.23518 | 3.16823 | 34796 ft | 444 kts | 186° |
| 2026-04-19 06:42 | 44.20468 | 3.16872 | 34106 ft | 444 kts | 186° |
| 2026-04-19 06:42 | 44.17378 | 3.16922 | 33432 ft | 442 kts | 186° |
| 2026-04-19 06:42 | 44.14323 | 3.16974 | 32879 ft | 438 kts | 186° |
| 2026-04-19 06:42 | 44.11328 | 3.17017 | 32332 ft | 433 kts | 188° |
| 2026-04-19 06:43 | 44.08349 | 3.16649 | 31925 ft | 420 kts | 197° |
| 2026-04-19 06:43 | 44.05548 | 3.15697 | 31662 ft | 413 kts | 205° |
| 2026-04-19 06:43 | 44.02856 | 3.14511 | 31410 ft | 412 kts | 204° |
| 2026-04-19 06:43 | 44.00135 | 3.13330 | 31015 ft | 407 kts | 204° |
| 2026-04-19 06:44 | 43.97448 | 3.12172 | 30507 ft | 404 kts | 204° |
| 2026-04-19 06:44 | 43.94757 | 3.11015 | 29970 ft | 401 kts | 204° |
| 2026-04-19 06:44 | 43.92103 | 3.09874 | 29457 ft | 397 kts | 204° |
| 2026-04-19 06:44 | 43.89494 | 3.08751 | 28972 ft | 392 kts | 204° |
| 2026-04-19 06:45 | 43.86909 | 3.07634 | 28489 ft | 388 kts | 204° |
| 2026-04-19 06:45 | 43.84341 | 3.06521 | 28019 ft | 384 kts | 204° |
| 2026-04-19 06:45 | 43.81800 | 3.05416 | 27561 ft | 380 kts | 203° |
| 2026-04-19 06:45 | 43.79297 | 3.04326 | 27112 ft | 377 kts | 203° |
| 2026-04-19 06:46 | 43.76803 | 3.03241 | 26668 ft | 374 kts | 203° |
| 2026-04-19 06:46 | 43.74276 | 3.02376 | 26228 ft | 377 kts | 194° |
| 2026-04-19 06:46 | 43.71668 | 3.01946 | 25782 ft | 376 kts | 192° |
| 2026-04-19 06:46 | 43.69075 | 3.01538 | 25333 ft | 374 kts | 192° |
| 2026-04-19 06:47 | 43.66528 | 3.01134 | 24887 ft | 371 kts | 192° |
| 2026-04-19 06:47 | 43.63971 | 3.00727 | 24440 ft | 369 kts | 192° |
| 2026-04-19 06:47 | 43.61424 | 3.00319 | 23982 ft | 368 kts | 192° |
| 2026-04-19 06:47 | 43.58886 | 2.99913 | 23491 ft | 366 kts | 192° |
| 2026-04-19 06:48 | 43.56366 | 2.99510 | 23004 ft | 363 kts | 191° |
| 2026-04-19 06:48 | 43.53880 | 2.99113 | 22545 ft | 360 kts | 191° |
| 2026-04-19 06:48 | 43.51402 | 2.98718 | 22092 ft | 357 kts | 191° |
| 2026-04-19 06:48 | 43.49004 | 2.98337 | 21646 ft | 355 kts | 191° |
| 2026-04-19 06:49 | 43.46547 | 2.97947 | 21190 ft | 354 kts | 191° |
| 2026-04-19 06:49 | 43.44104 | 2.97559 | 20726 ft | 353 kts | 191° |
| 2026-04-19 06:49 | 43.41670 | 2.97170 | 20275 ft | 352 kts | 191° |
| 2026-04-19 06:49 | 43.39241 | 2.96780 | 19827 ft | 351 kts | 191° |
| 2026-04-19 06:50 | 43.36833 | 2.96397 | 19367 ft | 350 kts | 191° |
| 2026-04-19 06:50 | 43.34407 | 2.96015 | 18915 ft | 349 kts | 190° |
| 2026-04-19 06:50 | 43.31994 | 2.95635 | 18461 ft | 349 kts | 190° |
| 2026-04-19 06:50 | 43.29582 | 2.95252 | 17973 ft | 348 kts | 190° |
| 2026-04-19 06:51 | 43.27183 | 2.94871 | 17526 ft | 346 kts | 190° |
| 2026-04-19 06:51 | 43.24796 | 2.94496 | 17094 ft | 344 kts | 190° |
| 2026-04-19 06:51 | 43.22427 | 2.94123 | 16658 ft | 343 kts | 190° |
| 2026-04-19 06:51 | 43.20043 | 2.93910 | 16220 ft | 344 kts | 181° |
| 2026-04-19 06:52 | 43.17695 | 2.94356 | 15793 ft | 347 kts | 169° |
| 2026-04-19 06:52 | 43.15349 | 2.95139 | 15366 ft | 346 kts | 169° |
| 2026-04-19 06:52 | 43.13012 | 2.95914 | 14931 ft | 346 kts | 169° |
| 2026-04-19 06:52 | 43.10671 | 2.96686 | 14494 ft | 346 kts | 169° |
| 2026-04-19 06:53 | 43.08332 | 2.97454 | 14059 ft | 346 kts | 169° |
| 2026-04-19 06:53 | 43.05998 | 2.98219 | 13596 ft | 345 kts | 168° |
| 2026-04-19 06:53 | 43.03669 | 2.98982 | 13150 ft | 343 kts | 168° |
| 2026-04-19 06:53 | 43.01351 | 2.99744 | 12710 ft | 341 kts | 168° |
| 2026-04-19 06:54 | 42.99057 | 3.00499 | 12273 ft | 339 kts | 168° |
| 2026-04-19 06:54 | 42.96762 | 3.01249 | 11729 ft | 340 kts | 168° |
| 2026-04-19 06:54 | 42.94467 | 3.01996 | 11254 ft | 339 kts | 168° |
| 2026-04-19 06:54 | 42.92178 | 3.02740 | 10807 ft | 337 kts | 168° |
| 2026-04-19 06:55 | 42.89903 | 3.03482 | 10354 ft | 335 kts | 168° |
| 2026-04-19 06:55 | 42.87650 | 3.04221 | 10080 ft | 328 kts | 167° |
| 2026-04-19 06:55 | 42.85488 | 3.04985 | 9958 ft | 316 kts | 166° |
| 2026-04-19 06:55 | 42.83401 | 3.05769 | 9808 ft | 304 kts | 166° |
| 2026-04-19 06:56 | 42.81399 | 3.06534 | 9247 ft | 296 kts | 166° |
| 2026-04-19 06:56 | 42.79421 | 3.07286 | 8580 ft | 293 kts | 166° |
| 2026-04-19 06:56 | 42.77473 | 3.08022 | 7933 ft | 289 kts | 166° |
| 2026-04-19 06:56 | 42.75575 | 3.08734 | 7342 ft | 283 kts | 166° |
| 2026-04-19 06:57 | 42.73745 | 3.09421 | 7167 ft | 262 kts | 166° |
| 2026-04-19 06:57 | 42.72042 | 3.10061 | 6860 ft | 250 kts | 167° |
| 2026-04-19 06:57 | 42.70376 | 3.10660 | 6655 ft | 243 kts | 172° |
| 2026-04-19 06:57 | 42.68703 | 3.10904 | 6506 ft | 242 kts | 177° |
| 2026-04-19 06:58 | 42.67020 | 3.11097 | 6076 ft | 244 kts | 177° |
| 2026-04-19 06:58 | 42.65331 | 3.11295 | 5712 ft | 243 kts | 177° |
| 2026-04-19 06:58 | 42.63633 | 3.11498 | 5322 ft | 244 kts | 176° |
| 2026-04-19 06:58 | 42.61940 | 3.11588 | 4805 ft | 242 kts | 190° |
| 2026-04-19 06:59 | 42.60452 | 3.10653 | 4296 ft | 239 kts | 226° |
| 2026-04-19 06:59 | 42.59628 | 3.08773 | 3832 ft | 232 kts | 261° |
| 2026-04-19 06:59 | 42.59471 | 3.06630 | 3643 ft | 220 kts | 268° |
| 2026-04-19 06:59 | 42.59347 | 3.04654 | 3589 ft | 203 kts | 268° |
| 2026-04-19 07:00 | 42.59215 | 3.02765 | 3511 ft | 200 kts | 267° |
| 2026-04-19 07:00 | 42.59238 | 3.00906 | 3418 ft | 195 kts | 288° |
| 2026-04-19 07:00 | 42.59869 | 2.99315 | 3284 ft | 193 kts | 316° |
| 2026-04-19 07:00 | 42.60946 | 2.98253 | 3007 ft | 193 kts | 329° |
| 2026-04-19 07:01 | 42.62080 | 2.97317 | 2743 ft | 194 kts | 329° |
| 2026-04-19 07:01 | 42.63241 | 2.96352 | 2479 ft | 195 kts | 329° |
| 2026-04-19 07:01 | 42.64395 | 2.95389 | 2222 ft | 196 kts | 328° |
| 2026-04-19 07:01 | 42.65566 | 2.94411 | 1964 ft | 198 kts | 328° |
| 2026-04-19 07:02 | 42.66721 | 2.93446 | 1737 ft | 189 kts | 328° |
| 2026-04-19 07:02 | 42.67805 | 2.92543 | 1465 ft | 176 kts | 327° |
| 2026-04-19 07:02 | 42.68801 | 2.91728 | 1271 ft | 157 kts | 327° |
| 2026-04-19 07:02 | 42.69686 | 2.90997 | 1058 ft | 142 kts | 326° |
| 2026-04-19 07:03 | 42.70500 | 2.90301 | 843 ft | 137 kts | 324° |
| 2026-04-19 07:03 | 42.71309 | 2.89618 | 691 ft | 136 kts | 325° |
| 2026-04-19 07:03 | 42.72121 | 2.88940 | 548 ft | 138 kts | 326° |
| 2026-04-19 07:03 | 42.72940 | 2.88257 | 358 ft | 138 kts | 326° |
| 2026-04-19 07:04 | 42.73755 | 2.87569 | 176 ft | 138 kts | 326° |
| 2026-04-19 07:04 | 42.74525 | 2.86899 | 143 ft | 114 kts | 328° |
| 2026-04-19 07:04 | 42.74953 | 2.86543 | 141 ft | 21 kts | 314° |
| 2026-04-19 07:04 | 42.74956 | 2.86359 | 140 ft | 18 kts | 226° |
| 2026-04-19 07:05 | 42.74849 | 2.86384 | 141 ft | 11 kts | 147° |
| 2026-04-19 07:05 | 42.74819 | 2.86410 | 141 ft | 0 kts | 147° |